sensor_id;sensor_type;location;lat;lon;timestamp;pressure;altitude;pressure_sealevel;temperature;humidity
72585;BME280;60618;40.084;32.908;2023-07-20T00:02:24;89410.81;;;18.69;61.70
72585;BME280;60618;40.084;32.908;2023-07-20T00:04:51;89416.75;;;18.67;61.83
72585;BME280;60618;40.084;32.908;2023-07-20T00:07:17;89416.53;;;18.65;61.78
72585;BME280;60618;40.084;32.908;2023-07-20T00:09:44;89423.91;;;18.65;61.89
72585;BME280;60618;40.084;32.908;2023-07-20T00:12:11;89407.09;;;18.59;62.16
72585;BME280;60618;40.084;32.908;2023-07-20T00:14:38;89407.63;;;18.57;62.33
72585;BME280;60618;40.084;32.908;2023-07-20T00:17:05;89410.00;;;18.61;62.33
72585;BME280;60618;40.084;32.908;2023-07-20T00:19:32;89412.47;;;18.59;62.22
72585;BME280;60618;40.084;32.908;2023-07-20T00:21:59;89404.00;;;18.55;62.43
72585;BME280;60618;40.084;32.908;2023-07-20T00:24:26;89413.44;;;18.48;62.74
72585;BME280;60618;40.084;32.908;2023-07-20T00:26:53;89407.94;;;18.54;62.57
72585;BME280;60618;40.084;32.908;2023-07-20T00:29:20;89390.09;;;18.51;62.60
72585;BME280;60618;40.084;32.908;2023-07-20T00:31:47;89401.31;;;18.41;62.98
72585;BME280;60618;40.084;32.908;2023-07-20T00:34:17;89398.44;;;18.39;63.01
72585;BME280;60618;40.084;32.908;2023-07-20T00:36:44;89405.06;;;18.38;63.08
72585;BME280;60618;40.084;32.908;2023-07-20T00:39:11;89389.22;;;18.35;63.18
72585;BME280;60618;40.084;32.908;2023-07-20T00:41:37;89380.00;;;18.30;63.41
72585;BME280;60618;40.084;32.908;2023-07-20T00:44:05;89377.72;;;18.21;63.92
72585;BME280;60618;40.084;32.908;2023-07-20T00:46:32;89385.81;;;18.21;63.96
72585;BME280;60618;40.084;32.908;2023-07-20T00:49:00;89387.50;;;18.24;63.76
72585;BME280;60618;40.084;32.908;2023-07-20T00:51:27;89382.09;;;18.24;63.57
72585;BME280;60618;40.084;32.908;2023-07-20T00:53:54;89388.09;;;18.30;63.55
72585;BME280;60618;40.084;32.908;2023-07-20T00:56:21;89374.63;;;18.17;63.89
72585;BME280;60618;40.084;32.908;2023-07-20T00:58:49;89369.16;;;18.09;64.56
72585;BME280;60618;40.084;32.908;2023-07-20T01:01:16;89365.13;;;18.03;64.74
72585;BME280;60618;40.084;32.908;2023-07-20T01:03:43;89376.63;;;18.03;64.65
72585;BME280;60618;40.084;32.908;2023-07-20T01:06:37;89373.53;;;17.99;64.80
72585;BME280;60618;40.084;32.908;2023-07-20T01:09:18;89376.31;;;17.94;65.24
72585;BME280;60618;40.084;32.908;2023-07-20T01:11:52;89378.63;;;17.90;65.28
72585;BME280;60618;40.084;32.908;2023-07-20T01:14:21;89364.50;;;17.97;64.81
72585;BME280;60618;40.084;32.908;2023-07-20T01:16:49;89373.22;;;17.90;65.16
72585;BME280;60618;40.084;32.908;2023-07-20T01:19:17;89370.13;;;17.85;65.24
72585;BME280;60618;40.084;32.908;2023-07-20T01:21:51;89364.44;;;17.89;65.40
72585;BME280;60618;40.084;32.908;2023-07-20T01:27:28;89385.56;;;17.85;65.20
72585;BME280;60618;40.084;32.908;2023-07-20T01:32:44;89373.81;;;17.69;65.86
72585;BME280;60618;40.084;32.908;2023-07-20T01:35:14;89379.22;;;17.69;65.82
72585;BME280;60618;40.084;32.908;2023-07-20T01:37:44;89375.91;;;17.76;65.72
72585;BME280;60618;40.084;32.908;2023-07-20T01:40:15;89381.91;;;17.69;65.94
72585;BME280;60618;40.084;32.908;2023-07-20T01:42:46;89362.06;;;17.72;65.80
72585;BME280;60618;40.084;32.908;2023-07-20T01:45:13;89363.03;;;17.69;65.76
72585;BME280;60618;40.084;32.908;2023-07-20T01:47:40;89375.91;;;17.63;66.29
72585;BME280;60618;40.084;32.908;2023-07-20T01:50:07;89391.63;;;17.59;66.35
72585;BME280;60618;40.084;32.908;2023-07-20T01:52:34;89364.72;;;17.59;66.40
72585;BME280;60618;40.084;32.908;2023-07-20T01:55:01;89382.31;;;17.60;66.31
72585;BME280;60618;40.084;32.908;2023-07-20T01:57:28;89377.97;;;17.57;66.42
72585;BME280;60618;40.084;32.908;2023-07-20T01:59:55;89367.09;;;17.49;66.88
72585;BME280;60618;40.084;32.908;2023-07-20T02:02:26;89377.75;;;17.42;67.20
72585;BME280;60618;40.084;32.908;2023-07-20T02:04:53;89382.28;;;17.34;67.45
72585;BME280;60618;40.084;32.908;2023-07-20T02:07:20;89380.03;;;17.38;67.53
72585;BME280;60618;40.084;32.908;2023-07-20T02:09:47;89375.06;;;17.42;67.29
72585;BME280;60618;40.084;32.908;2023-07-20T02:12:13;89384.50;;;17.35;67.36
72585;BME280;60618;40.084;32.908;2023-07-20T02:14:41;89375.78;;;17.42;67.23
72585;BME280;60618;40.084;32.908;2023-07-20T02:17:08;89387.28;;;17.43;67.15
72585;BME280;60618;40.084;32.908;2023-07-20T02:19:35;89391.53;;;17.38;67.16
72585;BME280;60618;40.084;32.908;2023-07-20T02:22:02;89383.34;;;17.30;67.73
72585;BME280;60618;40.084;32.908;2023-07-20T02:24:29;89383.84;;;17.29;67.79
72585;BME280;60618;40.084;32.908;2023-07-20T02:26:56;89389.75;;;17.27;67.83
72585;BME280;60618;40.084;32.908;2023-07-20T02:29:23;89390.03;;;17.24;67.94
72585;BME280;60618;40.084;32.908;2023-07-20T02:31:50;89381.16;;;17.29;67.50
72585;BME280;60618;40.084;32.908;2023-07-20T02:34:17;89384.78;;;17.31;67.59
72585;BME280;60618;40.084;32.908;2023-07-20T02:36:44;89394.09;;;17.30;67.36
72585;BME280;60618;40.084;32.908;2023-07-20T02:39:11;89399.81;;;17.27;67.92
72585;BME280;60618;40.084;32.908;2023-07-20T02:41:38;89403.75;;;17.26;67.63
72585;BME280;60618;40.084;32.908;2023-07-20T02:44:04;89401.84;;;17.21;67.84
72585;BME280;60618;40.084;32.908;2023-07-20T02:46:31;89402.25;;;17.25;67.77
72585;BME280;60618;40.084;32.908;2023-07-20T02:48:58;89404.47;;;17.26;67.70
72585;BME280;60618;40.084;32.908;2023-07-20T02:51:25;89416.75;;;17.22;68.14
72585;BME280;60618;40.084;32.908;2023-07-20T02:53:52;89407.31;;;17.15;68.26
72585;BME280;60618;40.084;32.908;2023-07-20T02:56:19;89409.00;;;17.18;68.21
72585;BME280;60618;40.084;32.908;2023-07-20T02:58:47;89395.75;;;17.20;68.26
72585;BME280;60618;40.084;32.908;2023-07-20T03:01:13;89422.06;;;17.27;67.89
72585;BME280;60618;40.084;32.908;2023-07-20T03:03:42;89407.34;;;17.28;67.92
72585;BME280;60618;40.084;32.908;2023-07-20T03:06:09;89393.69;;;17.26;67.95
72585;BME280;60618;40.084;32.908;2023-07-20T03:08:36;89405.91;;;17.27;67.86
72585;BME280;60618;40.084;32.908;2023-07-20T03:11:03;89405.00;;;17.38;67.37
72585;BME280;60618;40.084;32.908;2023-07-20T03:13:30;89415.25;;;17.40;67.28
72585;BME280;60618;40.084;32.908;2023-07-20T03:15:57;89424.78;;;17.54;66.60
72585;BME280;60618;40.084;32.908;2023-07-20T03:18:24;89425.41;;;17.60;66.22
72585;BME280;60618;40.084;32.908;2023-07-20T03:20:50;89416.50;;;17.65;66.24
72585;BME280;60618;40.084;32.908;2023-07-20T03:23:17;89434.56;;;17.70;65.83
72585;BME280;60618;40.084;32.908;2023-07-20T03:25:44;89441.41;;;17.71;65.75
72585;BME280;60618;40.084;32.908;2023-07-20T03:28:11;89441.72;;;17.81;65.39
72585;BME280;60618;40.084;32.908;2023-07-20T03:30:38;89435.94;;;17.90;64.75
72585;BME280;60618;40.084;32.908;2023-07-20T03:33:05;89438.22;;;17.99;64.26
72585;BME280;60618;40.084;32.908;2023-07-20T03:35:32;89445.53;;;18.12;63.67
72585;BME280;60618;40.084;32.908;2023-07-20T03:37:59;89445.66;;;18.20;63.40
72585;BME280;60618;40.084;32.908;2023-07-20T03:40:26;89441.59;;;18.26;62.91
72585;BME280;60618;40.084;32.908;2023-07-20T03:42:53;89450.50;;;18.34;62.50
72585;BME280;60618;40.084;32.908;2023-07-20T03:45:19;89438.44;;;18.49;62.03
72585;BME280;60618;40.084;32.908;2023-07-20T03:47:46;89449.97;;;18.49;62.17
72585;BME280;60618;40.084;32.908;2023-07-20T03:50:13;89441.56;;;18.53;62.01
72585;BME280;60618;40.084;32.908;2023-07-20T03:52:40;89442.56;;;18.63;61.71
72585;BME280;60618;40.084;32.908;2023-07-20T03:55:08;89449.81;;;18.81;60.71
72585;BME280;60618;40.084;32.908;2023-07-20T03:57:34;89445.31;;;18.97;60.57
72585;BME280;60618;40.084;32.908;2023-07-20T04:00:02;89453.44;;;19.05;60.10
72585;BME280;60618;40.084;32.908;2023-07-20T04:02:29;89446.09;;;19.26;59.01
72585;BME280;60618;40.084;32.908;2023-07-20T04:04:56;89454.81;;;19.32;59.11
72585;BME280;60618;40.084;32.908;2023-07-20T04:07:23;89457.81;;;19.49;59.15
72585;BME280;60618;40.084;32.908;2023-07-20T04:09:49;89461.94;;;19.64;57.63
72585;BME280;60618;40.084;32.908;2023-07-20T04:12:16;89456.53;;;19.43;58.13
72585;BME280;60618;40.084;32.908;2023-07-20T04:14:43;89460.31;;;19.47;58.20
72585;BME280;60618;40.084;32.908;2023-07-20T04:17:10;89465.88;;;19.63;58.03
72585;BME280;60618;40.084;32.908;2023-07-20T04:19:37;89455.81;;;19.63;57.54
72585;BME280;60618;40.084;32.908;2023-07-20T04:22:04;89462.72;;;19.72;56.97
72585;BME280;60618;40.084;32.908;2023-07-20T04:24:31;89462.50;;;19.49;57.73
72585;BME280;60618;40.084;32.908;2023-07-20T04:26:58;89467.34;;;19.64;57.48
72585;BME280;60618;40.084;32.908;2023-07-20T04:29:24;89467.47;;;19.58;57.28
72585;BME280;60618;40.084;32.908;2023-07-20T04:31:51;89465.41;;;19.72;56.42
72585;BME280;60618;40.084;32.908;2023-07-20T04:34:18;89467.72;;;19.68;56.62
72585;BME280;60618;40.084;32.908;2023-07-20T04:36:45;89465.19;;;19.91;56.46
72585;BME280;60618;40.084;32.908;2023-07-20T04:39:13;89468.91;;;19.80;55.90
72585;BME280;60618;40.084;32.908;2023-07-20T04:41:55;89474.03;;;19.91;56.64
72585;BME280;60618;40.084;32.908;2023-07-20T04:44:22;89479.53;;;20.06;55.59
72585;BME280;60618;40.084;32.908;2023-07-20T04:46:49;89474.41;;;20.52;54.88
72585;BME280;60618;40.084;32.908;2023-07-20T04:49:16;89467.53;;;20.95;53.40
72585;BME280;60618;40.084;32.908;2023-07-20T04:51:43;89467.78;;;21.12;52.27
72585;BME280;60618;40.084;32.908;2023-07-20T04:54:10;89466.28;;;20.96;52.06
72585;BME280;60618;40.084;32.908;2023-07-20T04:56:37;89465.13;;;20.84;52.91
72585;BME280;60618;40.084;32.908;2023-07-20T04:59:05;89467.63;;;20.74;53.17
72585;BME280;60618;40.084;32.908;2023-07-20T05:01:32;89469.34;;;20.56;53.40
72585;BME280;60618;40.084;32.908;2023-07-20T05:03:59;89463.22;;;20.56;53.67
72585;BME280;60618;40.084;32.908;2023-07-20T05:06:26;89465.06;;;20.61;53.74
72585;BME280;60618;40.084;32.908;2023-07-20T05:08:53;89456.81;;;20.74;53.07
72585;BME280;60618;40.084;32.908;2023-07-20T05:11:20;89464.25;;;20.89;53.21
72585;BME280;60618;40.084;32.908;2023-07-20T05:13:47;89464.44;;;20.91;52.67
72585;BME280;60618;40.084;32.908;2023-07-20T05:16:14;89462.66;;;21.01;52.80
72585;BME280;60618;40.084;32.908;2023-07-20T05:18:41;89471.00;;;21.03;52.44
72585;BME280;60618;40.084;32.908;2023-07-20T05:21:09;89472.63;;;21.06;52.99
72585;BME280;60618;40.084;32.908;2023-07-20T05:23:36;89468.19;;;21.32;52.33
72585;BME280;60618;40.084;32.908;2023-07-20T05:26:03;89464.25;;;21.48;51.54
72585;BME280;60618;40.084;32.908;2023-07-20T05:28:35;89470.56;;;21.43;51.92
72585;BME280;60618;40.084;32.908;2023-07-20T05:31:05;89464.97;;;21.48;52.00
72585;BME280;60618;40.084;32.908;2023-07-20T05:33:35;89464.56;;;21.37;51.93
72585;BME280;60618;40.084;32.908;2023-07-20T05:36:02;89460.81;;;21.78;51.86
72585;BME280;60618;40.084;32.908;2023-07-20T05:38:37;89463.00;;;21.79;51.16
72585;BME280;60618;40.084;32.908;2023-07-20T05:41:04;89464.06;;;21.99;50.95
72585;BME280;60618;40.084;32.908;2023-07-20T05:43:31;89468.78;;;22.22;49.91
72585;BME280;60618;40.084;32.908;2023-07-20T05:45:57;89470.00;;;22.36;49.13
72585;BME280;60618;40.084;32.908;2023-07-20T05:48:24;89463.13;;;22.27;49.59
72585;BME280;60618;40.084;32.908;2023-07-20T05:50:53;89460.19;;;22.56;49.10
72585;BME280;60618;40.084;32.908;2023-07-20T05:53:20;89451.34;;;22.48;48.66
72585;BME280;60618;40.084;32.908;2023-07-20T05:55:53;89458.66;;;22.78;48.49
72585;BME280;60618;40.084;32.908;2023-07-20T05:58:26;89458.84;;;22.72;48.65
72585;BME280;60618;40.084;32.908;2023-07-20T06:00:53;89451.75;;;22.92;48.07
72585;BME280;60618;40.084;32.908;2023-07-20T06:03:20;89445.88;;;23.11;47.43
72585;BME280;60618;40.084;32.908;2023-07-20T06:05:47;89447.66;;;23.16;47.20
72585;BME280;60618;40.084;32.908;2023-07-20T06:08:14;89438.84;;;23.33;46.45
72585;BME280;60618;40.084;32.908;2023-07-20T06:10:41;89446.78;;;23.71;46.07
72585;BME280;60618;40.084;32.908;2023-07-20T06:13:11;89438.72;;;23.56;46.56
72585;BME280;60618;40.084;32.908;2023-07-20T06:15:38;89442.16;;;23.56;46.58
72585;BME280;60618;40.084;32.908;2023-07-20T06:18:05;89441.94;;;23.62;45.67
72585;BME280;60618;40.084;32.908;2023-07-20T06:20:35;89434.97;;;23.76;46.13
72585;BME280;60618;40.084;32.908;2023-07-20T06:23:02;89449.84;;;23.75;45.39
72585;BME280;60618;40.084;32.908;2023-07-20T06:25:29;89442.56;;;24.02;44.46
72585;BME280;60618;40.084;32.908;2023-07-20T06:27:56;89439.25;;;24.46;43.63
72585;BME280;60618;40.084;32.908;2023-07-20T06:30:24;89437.56;;;24.51;43.62
72585;BME280;60618;40.084;32.908;2023-07-20T06:32:51;89443.09;;;24.60;43.36
72585;BME280;60618;40.084;32.908;2023-07-20T06:35:18;89443.09;;;24.78;43.27
72585;BME280;60618;40.084;32.908;2023-07-20T06:37:45;89436.19;;;25.11;42.77
72585;BME280;60618;40.084;32.908;2023-07-20T06:40:12;89441.59;;;25.29;41.77
72585;BME280;60618;40.084;32.908;2023-07-20T06:42:42;89433.81;;;24.63;43.24
72585;BME280;60618;40.084;32.908;2023-07-20T06:45:12;89431.59;;;24.97;42.46
72585;BME280;60618;40.084;32.908;2023-07-20T06:47:42;89435.41;;;24.49;42.67
72585;BME280;60618;40.084;32.908;2023-07-20T06:50:10;89432.19;;;24.43;43.39
72585;BME280;60618;40.084;32.908;2023-07-20T06:52:43;89421.84;;;24.94;42.24
72585;BME280;60618;40.084;32.908;2023-07-20T06:55:10;89426.81;;;25.32;40.79
72585;BME280;60618;40.084;32.908;2023-07-20T06:57:37;89427.94;;;25.83;39.89
72585;BME280;60618;40.084;32.908;2023-07-20T07:00:04;89425.22;;;25.83;39.71
72585;BME280;60618;40.084;32.908;2023-07-20T07:02:31;89418.78;;;25.34;40.22
72585;BME280;60618;40.084;32.908;2023-07-20T07:04:58;89427.63;;;25.25;40.30
72585;BME280;60618;40.084;32.908;2023-07-20T07:07:44;89423.28;;;25.39;40.76
72585;BME280;60618;40.084;32.908;2023-07-20T07:10:14;89424.34;;;24.82;41.16
72585;BME280;60618;40.084;32.908;2023-07-20T07:12:41;89433.75;;;24.98;41.35
72585;BME280;60618;40.084;32.908;2023-07-20T07:15:08;89427.53;;;25.59;40.36
72585;BME280;60618;40.084;32.908;2023-07-20T07:17:36;89416.28;;;25.72;39.64
72585;BME280;60618;40.084;32.908;2023-07-20T07:20:05;89414.28;;;25.46;39.79
72585;BME280;60618;40.084;32.908;2023-07-20T07:22:36;89415.16;;;25.85;39.36
72585;BME280;60618;40.084;32.908;2023-07-20T07:25:03;89410.34;;;26.22;38.12
72585;BME280;60618;40.084;32.908;2023-07-20T07:27:30;89406.81;;;25.83;38.14
72585;BME280;60618;40.084;32.908;2023-07-20T07:29:57;89396.66;;;26.03;38.10
72585;BME280;60618;40.084;32.908;2023-07-20T07:32:24;89394.25;;;26.07;37.64
72585;BME280;60618;40.084;32.908;2023-07-20T07:34:51;89396.97;;;26.07;36.24
72585;BME280;60618;40.084;32.908;2023-07-20T07:37:18;89392.41;;;26.19;37.01
72585;BME280;60618;40.084;32.908;2023-07-20T07:39:45;89390.53;;;26.31;36.67
72585;BME280;60618;40.084;32.908;2023-07-20T07:42:12;89379.59;;;26.22;37.71
72585;BME280;60618;40.084;32.908;2023-07-20T07:44:39;89389.47;;;25.88;37.74
72585;BME280;60618;40.084;32.908;2023-07-20T07:47:06;89380.19;;;26.20;35.95
72585;BME280;60618;40.084;32.908;2023-07-20T07:49:33;89389.56;;;26.75;35.60
72585;BME280;60618;40.084;32.908;2023-07-20T07:52:00;89390.88;;;26.55;34.77
72585;BME280;60618;40.084;32.908;2023-07-20T07:54:28;89385.25;;;26.34;34.68
72585;BME280;60618;40.084;32.908;2023-07-20T07:56:55;89373.47;;;26.60;32.82
72585;BME280;60618;40.084;32.908;2023-07-20T07:59:22;89362.50;;;27.08;33.21
72585;BME280;60618;40.084;32.908;2023-07-20T08:01:49;89375.31;;;27.06;33.35
72585;BME280;60618;40.084;32.908;2023-07-20T08:04:16;89365.44;;;26.62;34.38
72585;BME280;60618;40.084;32.908;2023-07-20T08:06:44;89369.16;;;26.38;35.24
72585;BME280;60618;40.084;32.908;2023-07-20T08:09:11;89361.09;;;26.59;35.84
72585;BME280;60618;40.084;32.908;2023-07-20T08:11:39;89362.13;;;26.64;35.51
72585;BME280;60618;40.084;32.908;2023-07-20T08:14:06;89355.63;;;26.40;34.70
72585;BME280;60618;40.084;32.908;2023-07-20T08:16:33;89349.97;;;26.96;34.16
72585;BME280;60618;40.084;32.908;2023-07-20T08:19:01;89352.72;;;27.15;34.08
72585;BME280;60618;40.084;32.908;2023-07-20T08:21:28;89343.31;;;27.59;34.00
72585;BME280;60618;40.084;32.908;2023-07-20T08:23:55;89340.38;;;27.76;33.98
72585;BME280;60618;40.084;32.908;2023-07-20T08:26:23;89338.47;;;27.48;33.87
72585;BME280;60618;40.084;32.908;2023-07-20T08:28:51;89342.25;;;26.82;34.51
72585;BME280;60618;40.084;32.908;2023-07-20T08:31:18;89338.66;;;26.70;35.41
72585;BME280;60618;40.084;32.908;2023-07-20T08:33:45;89327.25;;;26.93;34.53
72585;BME280;60618;40.084;32.908;2023-07-20T08:36:11;89332.28;;;27.47;34.83
72585;BME280;60618;40.084;32.908;2023-07-20T08:38:39;89328.84;;;27.06;34.12
72585;BME280;60618;40.084;32.908;2023-07-20T08:41:06;89326.69;;;26.85;34.76
72585;BME280;60618;40.084;32.908;2023-07-20T08:43:34;89329.03;;;27.29;34.52
72585;BME280;60618;40.084;32.908;2023-07-20T08:46:03;89331.91;;;27.31;34.21
72585;BME280;60618;40.084;32.908;2023-07-20T08:48:31;89338.69;;;27.71;32.28
72585;BME280;60618;40.084;32.908;2023-07-20T08:50:58;89337.84;;;27.59;33.00
72585;BME280;60618;40.084;32.908;2023-07-20T08:53:27;89337.81;;;27.78;33.44
72585;BME280;60618;40.084;32.908;2023-07-20T08:55:54;89332.56;;;28.13;31.54
72585;BME280;60618;40.084;32.908;2023-07-20T08:58:23;89323.09;;;28.26;32.24
72585;BME280;60618;40.084;32.908;2023-07-20T09:00:50;89320.19;;;28.67;31.07
72585;BME280;60618;40.084;32.908;2023-07-20T09:03:19;89328.84;;;28.51;30.93
72585;BME280;60618;40.084;32.908;2023-07-20T09:05:46;89325.94;;;28.71;30.60
72585;BME280;60618;40.084;32.908;2023-07-20T09:08:13;89330.66;;;28.59;29.76
72585;BME280;60618;40.084;32.908;2023-07-20T09:10:40;89327.53;;;28.52;29.89
72585;BME280;60618;40.084;32.908;2023-07-20T09:13:07;89321.63;;;28.68;29.53
72585;BME280;60618;40.084;32.908;2023-07-20T09:15:36;89318.84;;;28.89;28.73
72585;BME280;60618;40.084;32.908;2023-07-20T09:18:03;89314.25;;;28.70;28.84
72585;BME280;60618;40.084;32.908;2023-07-20T09:20:32;89318.22;;;28.79;28.72
72585;BME280;60618;40.084;32.908;2023-07-20T09:22:59;89314.38;;;29.05;29.14
72585;BME280;60618;40.084;32.908;2023-07-20T09:25:27;89308.63;;;28.35;29.03
72585;BME280;60618;40.084;32.908;2023-07-20T09:27:57;89308.28;;;28.19;29.00
72585;BME280;60618;40.084;32.908;2023-07-20T09:30:28;89312.00;;;28.03;28.64
72585;BME280;60618;40.084;32.908;2023-07-20T09:32:59;89297.78;;;28.16;28.58
72585;BME280;60618;40.084;32.908;2023-07-20T09:35:26;89303.38;;;27.75;29.97
72585;BME280;60618;40.084;32.908;2023-07-20T09:38:08;89301.13;;;27.62;29.98
72585;BME280;60618;40.084;32.908;2023-07-20T09:40:38;89305.16;;;27.61;29.08
72585;BME280;60618;40.084;32.908;2023-07-20T09:43:08;89303.00;;;28.12;28.71
72585;BME280;60618;40.084;32.908;2023-07-20T09:45:42;89301.03;;;28.45;28.60
72585;BME280;60618;40.084;32.908;2023-07-20T09:48:12;89296.41;;;28.26;28.72
72585;BME280;60618;40.084;32.908;2023-07-20T09:50:43;89301.00;;;28.34;28.38
72585;BME280;60618;40.084;32.908;2023-07-20T09:53:16;89305.25;;;28.91;28.05
72585;BME280;60618;40.084;32.908;2023-07-20T09:55:49;89297.91;;;29.05;26.79
72585;BME280;60618;40.084;32.908;2023-07-20T09:58:17;89299.34;;;29.06;28.10
72585;BME280;60618;40.084;32.908;2023-07-20T10:00:45;89292.94;;;29.25;26.90
72585;BME280;60618;40.084;32.908;2023-07-20T10:03:18;89291.97;;;29.32;26.72
72585;BME280;60618;40.084;32.908;2023-07-20T10:05:59;89291.28;;;29.79;26.71
72585;BME280;60618;40.084;32.908;2023-07-20T10:08:29;89291.97;;;30.14;26.77
72585;BME280;60618;40.084;32.908;2023-07-20T10:11:00;89286.72;;;29.95;26.19
72585;BME280;60618;40.084;32.908;2023-07-20T10:13:29;89287.00;;;29.52;26.76
72585;BME280;60618;40.084;32.908;2023-07-20T10:16:03;89289.00;;;29.40;27.81
72585;BME280;60618;40.084;32.908;2023-07-20T10:21:00;89298.28;;;29.47;27.02
72585;BME280;60618;40.084;32.908;2023-07-20T10:23:32;89285.03;;;30.13;26.04
72585;BME280;60618;40.084;32.908;2023-07-20T10:26:01;89277.88;;;30.08;25.81
72585;BME280;60618;40.084;32.908;2023-07-20T10:28:28;89279.59;;;29.78;24.63
72585;BME280;60618;40.084;32.908;2023-07-20T10:30:55;89276.94;;;29.80;24.83
72585;BME280;60618;40.084;32.908;2023-07-20T10:33:22;89272.69;;;30.38;24.18
72585;BME280;60618;40.084;32.908;2023-07-20T10:36:00;89269.91;;;29.89;25.18
72585;BME280;60618;40.084;32.908;2023-07-20T10:41:20;89268.84;;;29.35;26.33
72585;BME280;60618;40.084;32.908;2023-07-20T10:43:48;89276.50;;;29.49;26.90
72585;BME280;60618;40.084;32.908;2023-07-20T10:46:41;89266.94;;;29.85;25.47
72585;BME280;60618;40.084;32.908;2023-07-20T10:49:09;89255.38;;;30.23;23.84
72585;BME280;60618;40.084;32.908;2023-07-20T10:51:43;89260.31;;;30.50;24.33
72585;BME280;60618;40.084;32.908;2023-07-20T10:56:44;89249.22;;;31.13;22.85
72585;BME280;60618;40.084;32.908;2023-07-20T11:01:58;89250.47;;;31.77;21.55
72585;BME280;60618;40.084;32.908;2023-07-20T11:04:51;89255.56;;;30.76;22.40
72585;BME280;60618;40.084;32.908;2023-07-20T11:07:37;89265.09;;;30.01;23.14
72585;BME280;60618;40.084;32.908;2023-07-20T11:10:14;89244.78;;;30.43;22.00
72585;BME280;60618;40.084;32.908;2023-07-20T11:13:19;89250.66;;;30.12;22.87
72585;BME280;60618;40.084;32.908;2023-07-20T11:16:07;89240.66;;;29.82;23.19
72585;BME280;60618;40.084;32.908;2023-07-20T11:18:34;89241.88;;;30.53;22.69
72585;BME280;60618;40.084;32.908;2023-07-20T11:21:01;89244.41;;;31.00;20.63
72585;BME280;60618;40.084;32.908;2023-07-20T11:23:29;89237.44;;;30.60;21.37
72585;BME280;60618;40.084;32.908;2023-07-20T11:25:56;89234.34;;;30.65;21.19
72585;BME280;60618;40.084;32.908;2023-07-20T11:28:23;89247.75;;;31.24;22.37
72585;BME280;60618;40.084;32.908;2023-07-20T11:30:52;89247.19;;;31.80;20.59
72585;BME280;60618;40.084;32.908;2023-07-20T11:33:21;89250.63;;;32.36;18.91
72585;BME280;60618;40.084;32.908;2023-07-20T11:35:49;89256.03;;;32.34;17.26
72585;BME280;60618;40.084;32.908;2023-07-20T11:38:16;89243.59;;;31.37;18.74
72585;BME280;60618;40.084;32.908;2023-07-20T11:40:44;89234.63;;;31.63;16.43
72585;BME280;60618;40.084;32.908;2023-07-20T11:43:12;89231.13;;;31.35;15.38
72585;BME280;60618;40.084;32.908;2023-07-20T11:45:43;89231.00;;;30.80;17.26
72585;BME280;60618;40.084;32.908;2023-07-20T11:48:15;89225.78;;;31.12;19.04
72585;BME280;60618;40.084;32.908;2023-07-20T11:50:42;89226.03;;;31.71;17.71
72585;BME280;60618;40.084;32.908;2023-07-20T11:53:09;89221.66;;;32.51;17.85
72585;BME280;60618;40.084;32.908;2023-07-20T11:55:38;89217.00;;;33.14;16.92
72585;BME280;60618;40.084;32.908;2023-07-20T11:58:07;89221.81;;;33.77;17.64
72585;BME280;60618;40.084;32.908;2023-07-20T12:00:36;89218.28;;;33.43;16.67
72585;BME280;60618;40.084;32.908;2023-07-20T12:03:05;89212.28;;;31.71;19.08
72585;BME280;60618;40.084;32.908;2023-07-20T12:05:33;89214.72;;;32.06;18.77
72585;BME280;60618;40.084;32.908;2023-07-20T12:08:20;89220.84;;;32.05;18.65
72585;BME280;60618;40.084;32.908;2023-07-20T12:10:48;89214.78;;;32.36;18.27
72585;BME280;60618;40.084;32.908;2023-07-20T12:13:15;89214.56;;;32.45;18.55
72585;BME280;60618;40.084;32.908;2023-07-20T12:15:43;89218.22;;;32.95;19.20
72585;BME280;60618;40.084;32.908;2023-07-20T12:18:10;89213.88;;;33.69;19.55
72585;BME280;60618;40.084;32.908;2023-07-20T12:20:38;89208.41;;;33.87;16.69
72585;BME280;60618;40.084;32.908;2023-07-20T12:23:08;89204.56;;;32.38;16.66
72585;BME280;60618;40.084;32.908;2023-07-20T12:28:15;89207.19;;;31.24;18.84
72585;BME280;60618;40.084;32.908;2023-07-20T12:30:46;89197.09;;;31.43;18.60
72585;BME280;60618;40.084;32.908;2023-07-20T12:33:13;89197.00;;;31.54;17.67
72585;BME280;60618;40.084;32.908;2023-07-20T12:35:41;89202.78;;;32.02;17.14
72585;BME280;60618;40.084;32.908;2023-07-20T12:38:08;89201.97;;;31.99;17.10
72585;BME280;60618;40.084;32.908;2023-07-20T12:40:35;89194.53;;;31.60;17.21
72585;BME280;60618;40.084;32.908;2023-07-20T12:43:02;89194.97;;;31.82;17.15
72585;BME280;60618;40.084;32.908;2023-07-20T12:45:29;89192.91;;;31.97;15.90
72585;BME280;60618;40.084;32.908;2023-07-20T12:47:56;89193.66;;;31.83;16.40
72585;BME280;60618;40.084;32.908;2023-07-20T12:50:23;89185.81;;;32.21;16.10
72585;BME280;60618;40.084;32.908;2023-07-20T12:52:50;89193.00;;;32.42;15.85
72585;BME280;60618;40.084;32.908;2023-07-20T12:55:17;89185.06;;;32.64;16.14
72585;BME280;60618;40.084;32.908;2023-07-20T12:57:45;89183.53;;;33.22;15.88
72585;BME280;60618;40.084;32.908;2023-07-20T13:00:14;89187.94;;;33.76;15.80
72585;BME280;60618;40.084;32.908;2023-07-20T13:02:41;89184.25;;;34.21;16.64
72585;BME280;60618;40.084;32.908;2023-07-20T13:05:09;89167.47;;;34.68;16.13
72585;BME280;60618;40.084;32.908;2023-07-20T13:07:38;89165.97;;;34.48;14.63
72585;BME280;60618;40.084;32.908;2023-07-20T13:10:09;89167.25;;;33.93;15.48
72585;BME280;60618;40.084;32.908;2023-07-20T13:12:37;89178.78;;;32.47;16.16
72585;BME280;60618;40.084;32.908;2023-07-20T13:15:09;89169.34;;;31.94;16.37
72585;BME280;60618;40.084;32.908;2023-07-20T13:17:38;89162.03;;;31.43;16.72